createdAt,value
2018-07-05T09:57:17.480Z,95.30
2018-07-05T09:59:44.005Z,81.90
2018-07-05T10:02:10.583Z,81.50
2018-07-05T10:04:37.147Z,81.80
2018-07-05T10:07:03.709Z,81.40
2018-07-05T10:09:30.280Z,81.90
2018-07-05T10:11:56.813Z,82.30
2018-07-05T10:14:23.356Z,82.50
2018-07-05T10:16:49.892Z,83.40
2018-07-05T10:19:16.456Z,83.60
2018-07-05T10:21:42.992Z,83.50
2018-07-05T10:24:09.527Z,83.90
2018-07-05T10:26:36.100Z,83.20
2018-07-05T10:29:14.988Z,83.20
2018-07-05T10:31:53.923Z,83.10
2018-07-05T10:34:20.498Z,84.60
2018-07-05T10:36:47.044Z,85.30
2018-07-05T10:39:13.584Z,83.80
2018-07-05T10:41:52.546Z,84.00
2018-07-05T10:44:31.412Z,83.70
2018-07-05T10:47:10.347Z,84.70
2018-07-05T10:49:49.153Z,84.10
2018-07-05T10:52:28.030Z,84.70
2018-07-05T10:55:06.819Z,86.90
2018-07-05T10:57:45.655Z,84.30
2018-07-05T11:00:24.568Z,83.40
2018-07-05T11:03:03.576Z,84.70
2018-07-05T11:05:42.352Z,84.80
2018-07-05T11:08:21.120Z,82.50
2018-07-05T11:10:59.895Z,83.40
2018-07-05T11:13:38.803Z,85.00
2018-07-05T11:16:17.639Z,88.20
2018-07-05T11:18:56.472Z,88.40
2018-07-05T11:21:35.343Z,90.00
2018-07-05T11:24:14.084Z,90.10
2018-07-05T11:26:53.037Z,90.50
2018-07-05T11:29:32.020Z,90.50
2018-07-05T11:32:10.934Z,90.30
2018-07-05T11:34:49.708Z,90.10
2018-07-05T11:37:28.487Z,90.30
2018-07-05T11:40:07.304Z,90.20
2018-07-05T11:42:46.166Z,90.20
2018-07-05T11:45:25.120Z,90.50
2018-07-05T11:48:04.070Z,90.30
2018-07-05T11:50:42.953Z,90.40
2018-07-05T11:53:21.932Z,89.70
2018-07-05T11:56:00.687Z,90.20
2018-07-05T11:58:39.588Z,90.10
2018-07-05T12:01:18.364Z,90.00
2018-07-05T12:03:57.396Z,90.30
2018-07-05T12:06:36.200Z,90.40
2018-07-05T12:09:15.020Z,90.50
2018-07-05T12:11:53.790Z,90.30
2018-07-05T12:14:32.770Z,91.00
2018-07-05T12:17:11.586Z,90.60
2018-07-05T12:19:50.536Z,91.30
2018-07-05T12:22:29.443Z,92.00
2018-07-05T12:25:08.279Z,91.60
2018-07-05T12:27:47.100Z,91.50
2018-07-05T12:30:25.914Z,92.00
2018-07-05T12:33:04.701Z,92.10
2018-07-05T12:35:43.623Z,92.40
2018-07-05T12:38:22.509Z,92.30
2018-07-05T12:41:01.549Z,92.20
2018-07-05T12:43:40.460Z,92.50
2018-07-05T12:46:19.425Z,93.10
2018-07-05T12:48:58.256Z,92.80
2018-07-05T12:51:37.207Z,93.00
2018-07-05T12:54:16.132Z,93.10
2018-07-05T12:56:54.988Z,92.60
2018-07-05T12:59:33.833Z,93.10
2018-07-05T13:02:12.629Z,93.40
2018-07-05T13:04:51.461Z,93.90
2018-07-05T13:07:30.292Z,94.30
2018-07-05T13:10:09.150Z,95.20
2018-07-05T13:12:47.998Z,95.60
2018-07-05T13:15:26.764Z,95.80
2018-07-05T13:18:05.783Z,96.60
2018-07-05T13:20:44.615Z,96.70
2018-07-05T13:23:23.466Z,97.30
2018-07-05T13:26:02.901Z,97.20
2018-07-05T13:28:41.824Z,97.70
2018-07-05T13:31:20.749Z,98.00
2018-07-05T13:33:59.694Z,98.30
2018-07-05T13:36:38.479Z,98.60
2018-07-05T13:39:17.333Z,98.90
2018-07-05T13:41:56.241Z,98.90
2018-07-05T13:44:35.006Z,98.60
2018-07-05T13:47:13.857Z,99.00
2018-07-05T13:49:52.628Z,99.30
2018-07-05T13:52:31.597Z,99.60
2018-07-05T13:55:10.399Z,99.90
2018-07-05T13:57:49.237Z,99.90
2018-07-05T14:00:28.021Z,99.90
2018-07-05T14:03:06.880Z,99.90
2018-07-05T14:05:45.661Z,99.90
2018-07-05T14:08:24.572Z,99.90
2018-07-05T14:11:03.523Z,99.30
2018-07-05T14:13:42.440Z,98.90
2018-07-05T14:16:21.201Z,99.90
2018-07-05T14:19:00.199Z,99.90
2018-07-05T14:21:38.988Z,99.90
2018-07-05T14:24:17.911Z,99.90
2018-07-05T14:26:56.864Z,99.90
2018-07-05T14:29:35.690Z,99.90
2018-07-05T14:32:14.494Z,99.90
2018-07-05T14:34:53.327Z,99.90
2018-07-05T14:37:32.183Z,99.90
2018-07-05T14:40:11.121Z,99.90
2018-07-05T14:42:49.910Z,99.90
2018-07-05T14:45:28.718Z,99.30
2018-07-05T14:48:07.465Z,99.40
2018-07-05T14:50:46.263Z,99.90
2018-07-05T14:53:25.044Z,99.30
2018-07-05T14:56:04.005Z,98.90
2018-07-05T14:58:42.770Z,98.60
2018-07-05T15:01:21.694Z,98.90
2018-07-05T15:04:00.480Z,98.60
2018-07-05T15:06:39.438Z,98.20
2018-07-05T15:09:18.277Z,97.80
2018-07-05T15:11:57.160Z,97.90
2018-07-05T15:14:35.995Z,97.40
2018-07-05T15:17:14.993Z,98.00
2018-07-05T15:19:53.891Z,98.30
2018-07-05T15:22:32.717Z,98.30
2018-07-05T15:25:11.480Z,98.40
2018-07-05T15:27:50.437Z,98.40
2018-07-05T15:30:29.320Z,98.30
2018-07-05T15:33:08.597Z,98.30
2018-07-05T15:35:48.106Z,97.80
2018-07-05T15:38:27.127Z,98.10
2018-07-05T15:41:06.287Z,97.90
2018-07-05T15:43:45.139Z,97.90
2018-07-05T15:46:24.039Z,98.00
2018-07-05T15:49:03.088Z,97.60
2018-07-05T15:51:41.988Z,97.50
2018-07-05T15:54:20.894Z,98.10
2018-07-05T15:56:59.737Z,98.10
2018-07-05T15:59:38.603Z,98.30
2018-07-05T16:02:17.490Z,98.30
2018-07-05T16:04:56.331Z,98.10
